Time;durP1;ratioP1;P1;durP2;ratioP2;P2;SDS_P1;SDS_P2;PMS_P1;PMS_P2;Temp;Humidity;BMP_temperature;BMP_pressure;BME280_temperature;BME280_humidity;BME280_pressure;Samples;Min_cycle;Max_cycle;Signal;HPM_P1;HPM_P2
2023/05/09 00:00:05;;;;;;;0.10;0.10;;;11.70;99.90;;;;;;5019153;28;20394;-71
2023/05/09 00:02:33;;;;;;;0.20;0.20;;;11.60;99.90;;;;;;4996971;28;20026;-71
2023/05/09 00:05:02;;;;;;;0.20;0.20;;;11.60;99.90;;;;;;5033518;28;20045;-71
2023/05/09 00:07:28;;;;;;;0.17;0.17;;;11.60;99.90;;;;;;5035408;28;20091;-72
2023/05/09 00:09:53;;;;;;;0.20;0.20;;;11.50;99.90;;;;;;4999356;28;20034;-72
2023/05/09 00:12:19;;;;;;;0.17;0.17;;;11.50;99.90;;;;;;4995127;28;20058;-71
2023/05/09 00:14:47;;;;;;;0.20;0.20;;;11.50;99.90;;;;;;5005836;28;20069;-72
2023/05/09 00:17:14;;;;;;;0.20;0.20;;;11.50;99.90;;;;;;5015219;28;20470;-71
2023/05/09 00:19:40;;;;;;;0.17;0.17;;;11.50;99.90;;;;;;5032642;28;20028;-71
2023/05/09 00:22:08;;;;;;;0.20;0.20;;;11.50;99.90;;;;;;5034761;28;20021;-71
2023/05/09 00:24:33;;;;;;;0.20;0.20;;;11.50;99.90;;;;;;5034473;28;20025;-71
2023/05/09 00:26:59;;;;;;;0.20;0.20;;;11.50;99.90;;;;;;5034754;28;20465;-72
2023/05/09 00:29:24;;;;;;;0.10;0.10;;;11.50;99.90;;;;;;5034662;28;20029;-71
2023/05/09 00:31:50;;;;;;;0.20;0.20;;;11.40;99.90;;;;;;5025201;28;20406;-71
2023/05/09 00:34:15;;;;;;;0.20;0.20;;;11.50;99.90;;;;;;5020689;28;20124;-72
2023/05/09 00:36:41;;;;;;;0.10;0.10;;;11.50;99.90;;;;;;5014700;28;20099;-71
2023/05/09 00:39:06;;;;;;;0.20;0.20;;;11.40;99.90;;;;;;5010237;28;20037;-71
2023/05/09 00:41:32;;;;;;;0.22;0.22;;;11.50;99.90;;;;;;5014204;28;20033;-71
2023/05/09 00:43:57;;;;;;;0.17;0.17;;;11.40;99.90;;;;;;5012032;28;20053;-72
2023/05/09 00:46:23;;;;;;;0.20;0.20;;;11.50;99.90;;;;;;5010244;28;20032;-72
2023/05/09 00:48:49;;;;;;;0.10;0.10;;;11.50;99.90;;;;;;5013793;28;20036;-71
2023/05/09 00:51:15;;;;;;;0.20;0.20;;;11.40;99.90;;;;;;5014219;28;20030;-72
2023/05/09 00:53:41;;;;;;;0.22;0.22;;;11.40;99.90;;;;;;5012845;28;20026;-71
2023/05/09 00:56:07;;;;;;;0.20;0.20;;;11.30;99.90;;;;;;4991368;28;20042;-72
2023/05/09 00:58:33;;;;;;;0.10;0.10;;;11.40;99.90;;;;;;4994850;28;20022;-72
2023/05/09 01:01:01;;;;;;;0.20;0.20;;;11.30;99.90;;;;;;5007963;28;20486;-71
2023/05/09 01:03:26;;;;;;;0.20;0.20;;;11.20;99.90;;;;;;4995812;28;20141;-72
2023/05/09 01:06:05;;;;;;;0.17;0.17;;;11.20;99.90;;;;;;4994684;28;20508;-72
2023/05/09 01:08:53;;;;;;;0.20;0.20;;;11.20;99.90;;;;;;4996411;28;20037;-71
2023/05/09 01:11:31;;;;;;;0.20;0.20;;;11.30;99.90;;;;;;4995313;28;20033;-72
2023/05/09 01:14:19;;;;;;;0.20;0.20;;;11.20;99.90;;;;;;4994258;28;20045;-71
2023/05/09 01:17:00;;;;;;;0.20;0.20;;;11.20;99.90;;;;;;5033040;28;20426;-71
2023/05/09 01:19:47;;;;;;;0.10;0.10;;;11.30;99.90;;;;;;4996613;28;20105;-71
2023/05/09 01:22:15;;;;;;;0.20;0.20;;;11.30;99.90;;;;;;4996027;28;20022;-71
2023/05/09 01:24:59;;;;;;;0.20;0.20;;;11.30;99.90;;;;;;5013417;28;20080;-71
2023/05/09 01:27:44;;;;;;;;;;;11.30;99.90;;;;;;5013297;28;20022;-71
2023/05/09 01:30:12;;;;;;;0.20;0.20;;;11.30;99.90;;;;;;4954608;28;19960;-72
2023/05/09 01:32:41;;;;;;;0.20;0.20;;;11.30;99.90;;;;;;4994019;28;20049;-72
2023/05/09 01:35:08;;;;;;;0.20;0.20;;;11.30;99.90;;;;;;5007465;28;20121;-71
2023/05/09 01:37:36;;;;;;;0.20;0.20;;;11.30;99.90;;;;;;4995880;28;20033;-71
2023/05/09 01:40:22;;;;;;;0.20;0.20;;;11.30;99.90;;;;;;5009981;28;20026;-72
2023/05/09 01:42:56;;;;;;;0.10;0.10;;;11.30;99.90;;;;;;4994133;28;20030;-71
2023/05/09 01:45:22;;;;;;;;;;;11.30;99.90;;;;;;4994242;28;20034;-71
2023/05/09 01:47:49;;;;;;;0.17;0.17;;;11.30;99.90;;;;;;4995732;28;20359;-71
2023/05/09 01:50:17;;;;;;;0.10;0.10;;;11.30;99.90;;;;;;5003956;28;20060;-71
2023/05/09 01:52:47;;;;;;;0.13;0.13;;;11.30;99.90;;;;;;5013215;28;20049;-72
2023/05/09 01:55:15;;;;;;;0.15;0.15;;;11.30;99.90;;;;;;5017433;28;20479;-71
2023/05/09 01:57:42;;;;;;;0.10;0.10;;;11.20;99.90;;;;;;5013054;28;20037;-72
2023/05/09 02:00:09;;;;;;;0.10;0.10;;;11.20;99.90;;;;;;5007200;28;20054;-71
2023/05/09 02:02:36;;;;;;;0.10;0.10;;;11.10;99.90;;;;;;4993783;28;20026;-71
2023/05/09 02:05:02;;;;;;;0.20;0.20;;;11.10;99.90;;;;;;5010832;28;20061;-72
2023/05/09 02:07:28;;;;;;;0.13;0.13;;;11.10;99.90;;;;;;5035202;23;20036;-69
2023/05/09 02:09:55;;;;;;;0.20;0.20;;;11.00;99.90;;;;;;5013125;28;20108;-70
2023/05/09 02:12:22;;;;;;;0.20;0.20;;;11.10;99.90;;;;;;5012615;28;20054;-67
2023/05/09 02:14:49;;;;;;;0.20;0.20;;;11.10;99.90;;;;;;5011677;28;20038;-68
2023/05/09 02:17:15;;;;;;;0.15;0.15;;;11.00;99.90;;;;;;5014263;28;20026;-68
2023/05/09 02:19:42;;;;;;;0.20;0.20;;;11.00;99.90;;;;;;5021452;28;20076;-68
2023/05/09 02:22:08;;;;;;;0.20;0.20;;;11.00;99.90;;;;;;5019241;28;20034;-68
2023/05/09 02:24:34;;;;;;;0.20;0.20;;;11.00;99.90;;;;;;5020844;28;20102;-68
2023/05/09 02:27:02;;;;;;;0.20;0.20;;;10.90;99.90;;;;;;5011081;28;20042;-68
2023/05/09 02:29:39;;;;;;;0.22;0.22;;;10.90;99.90;;;;;;5018066;28;20082;-68
2023/05/09 02:32:08;;;;;;;0.20;0.20;;;10.90;99.90;;;;;;5016629;28;20038;-67
2023/05/09 02:34:36;;;;;;;0.20;0.20;;;10.90;99.90;;;;;;5019664;28;20372;-68
2023/05/09 02:37:02;;;;;;;0.10;0.10;;;10.80;99.90;;;;;;5032624;28;20029;-68
2023/05/09 02:39:28;;;;;;;0.20;0.20;;;10.80;99.90;;;;;;5032501;28;20092;-68
2023/05/09 02:41:53;;;;;;;0.20;0.20;;;10.80;99.90;;;;;;5032232;28;20096;-68
2023/05/09 02:44:19;;;;;;;0.10;0.10;;;10.70;99.90;;;;;;5030835;28;20034;-68
2023/05/09 02:46:45;;;;;;;0.20;0.20;;;10.70;99.90;;;;;;5032545;28;20032;-68
2023/05/09 02:49:10;;;;;;;0.10;0.10;;;10.60;99.90;;;;;;5031955;28;20037;-68
2023/05/09 02:51:36;;;;;;;0.10;0.10;;;10.60;99.90;;;;;;5031045;28;20021;-68
2023/05/09 02:54:02;;;;;;;0.20;0.20;;;10.60;99.90;;;;;;5032616;28;20029;-69
2023/05/09 02:56:27;;;;;;;0.20;0.20;;;10.60;99.90;;;;;;5029337;28;20475;-68
2023/05/09 02:58:53;;;;;;;0.20;0.20;;;10.60;99.90;;;;;;5032355;28;20040;-68
2023/05/09 03:01:18;;;;;;;0.20;0.20;;;10.60;99.90;;;;;;5027950;28;20022;-68
2023/05/09 03:03:44;;;;;;;0.20;0.20;;;10.60;99.90;;;;;;5032070;28;20025;-68
2023/05/09 03:06:10;;;;;;;0.20;0.20;;;10.60;99.90;;;;;;5015990;28;20034;-68
2023/05/09 03:08:37;;;;;;;0.10;0.10;;;10.60;99.90;;;;;;5012591;28;20072;-68
2023/05/09 03:11:02;;;;;;;0.15;0.15;;;10.60;99.90;;;;;;5012748;28;20105;-68
2023/05/09 03:13:28;;;;;;;0.10;0.10;;;10.50;99.90;;;;;;5012183;28;20030;-68
2023/05/09 03:15:53;;;;;;;0.20;0.20;;;10.40;99.90;;;;;;5021725;28;20483;-69
2023/05/09 03:18:19;;;;;;;0.10;0.10;;;10.40;99.90;;;;;;5032195;28;20034;-68
2023/05/09 03:20:44;;;;;;;0.10;0.10;;;10.40;99.90;;;;;;5027478;28;20033;-68
2023/05/09 03:23:10;;;;;;;0.20;0.20;;;10.40;99.90;;;;;;5012190;28;20045;-68
2023/05/09 03:25:35;;;;;;;0.20;0.20;;;10.30;99.90;;;;;;5012321;28;20033;-68
2023/05/09 03:28:01;;;;;;;0.20;0.20;;;10.30;99.90;;;;;;5014544;28;20029;-69
2023/05/09 03:30:26;;;;;;;0.20;0.20;;;10.30;99.90;;;;;;5012751;28;20118;-68
2023/05/09 03:32:52;;;;;;;0.20;0.20;;;10.30;99.90;;;;;;5012750;28;20018;-68
2023/05/09 03:35:17;;;;;;;0.20;0.20;;;10.30;99.90;;;;;;5011966;28;20495;-68
2023/05/09 03:37:43;;;;;;;0.20;0.20;;;10.20;99.90;;;;;;5013811;28;20033;-68
2023/05/09 03:40:09;;;;;;;0.10;0.10;;;10.20;99.90;;;;;;5016161;28;20026;-68
2023/05/09 03:42:34;;;;;;;0.20;0.20;;;10.10;99.90;;;;;;5016359;28;20479;-68
2023/05/09 03:45:00;;;;;;;0.30;0.30;;;10.10;99.90;;;;;;5016126;28;20399;-68
2023/05/09 03:47:25;;;;;;;0.10;0.10;;;10.10;99.90;;;;;;5015453;28;20034;-68
2023/05/09 03:49:52;;;;;;;0.20;0.20;;;10.10;99.90;;;;;;5015950;28;20022;-68
2023/05/09 03:52:17;;;;;;;0.20;0.20;;;10.10;99.90;;;;;;5015928;28;20109;-68
2023/05/09 03:54:43;;;;;;;0.20;0.20;;;10.10;99.90;;;;;;5016038;28;20105;-68
2023/05/09 03:57:08;;;;;;;0.22;0.22;;;10.10;99.90;;;;;;5015617;28;20216;-68
2023/05/09 03:59:34;;;;;;;0.20;0.20;;;10.10;99.90;;;;;;5015845;28;20092;-68
2023/05/09 04:02:00;;;;;;;0.20;0.20;;;10.10;99.90;;;;;;5015976;28;20030;-68
2023/05/09 04:04:26;;;;;;;0.10;0.10;;;10.10;99.90;;;;;;5016056;28;20387;-68
2023/05/09 04:06:51;;;;;;;0.20;0.20;;;10.00;99.90;;;;;;5015465;28;20061;-68
2023/05/09 04:09:17;;;;;;;0.10;0.10;;;10.00;99.90;;;;;;5015507;28;20038;-68
2023/05/09 04:11:43;;;;;;;0.15;0.15;;;10.00;99.90;;;;;;5015648;28;20035;-68
2023/05/09 04:14:08;;;;;;;0.10;0.10;;;10.00;99.90;;;;;;5015722;28;20576;-68
2023/05/09 04:16:34;;;;;;;0.20;0.20;;;10.00;99.90;;;;;;5015573;28;20503;-68
2023/05/09 04:18:59;;;;;;;0.15;0.15;;;9.90;99.90;;;;;;5015357;28;20029;-68
2023/05/09 04:21:25;;;;;;;0.20;0.20;;;10.00;99.90;;;;;;5015157;28;20025;-68
2023/05/09 04:23:51;;;;;;;0.20;0.20;;;9.90;99.90;;;;;;5015333;28;20030;-68
2023/05/09 04:26:17;;;;;;;0.10;0.10;;;10.00;99.90;;;;;;5015387;28;20029;-68
2023/05/09 04:28:42;;;;;;;0.13;0.13;;;9.90;99.90;;;;;;5015453;28;20392;-68
2023/05/09 04:31:08;;;;;;;0.10;0.10;;;9.90;99.90;;;;;;5015266;28;20101;-68
2023/05/09 04:33:34;;;;;;;0.20;0.20;;;9.90;99.90;;;;;;5015322;28;20476;-68
2023/05/09 04:36:01;;;;;;;0.20;0.20;;;10.00;99.90;;;;;;5014866;28;20122;-68
2023/05/09 04:38:27;;;;;;;0.10;0.10;;;10.00;99.90;;;;;;5015282;28;20039;-68
2023/05/09 04:40:52;;;;;;;0.20;0.20;;;10.10;99.90;;;;;;5015352;28;20026;-68
2023/05/09 04:43:18;;;;;;;0.10;0.10;;;10.30;99.90;;;;;;5015202;28;20498;-68
2023/05/09 04:45:44;;;;;;;0.20;0.20;;;10.40;99.90;;;;;;5014948;28;20495;-68
2023/05/09 04:48:10;;;;;;;0.10;0.10;;;10.50;99.90;;;;;;5015287;28;20112;-68
2023/05/09 04:50:36;;;;;;;0.10;0.10;;;10.50;99.90;;;;;;5014650;28;20151;-68
2023/05/09 04:53:01;;;;;;;0.13;0.13;;;10.60;99.90;;;;;;5014836;28;20022;-68
2023/05/09 04:55:27;;;;;;;0.20;0.20;;;10.70;99.90;;;;;;5014745;28;20034;-68
2023/05/09 04:57:52;;;;;;;0.10;0.10;;;10.70;99.90;;;;;;5014698;28;20041;-68
2023/05/09 05:00:18;;;;;;;0.10;0.10;;;10.80;99.90;;;;;;5014376;28;20037;-68
2023/05/09 05:02:44;;;;;;;0.20;0.20;;;10.90;99.90;;;;;;5014901;28;20021;-68
2023/05/09 05:05:10;;;;;;;0.20;0.20;;;11.00;99.90;;;;;;5014654;28;20025;-68
2023/05/09 05:07:36;;;;;;;0.20;0.20;;;11.10;99.90;;;;;;5013766;28;21311;-68
2023/05/09 05:10:02;;;;;;;0.20;0.20;;;11.10;99.90;;;;;;5019622;28;20034;-68
2023/05/09 05:12:27;;;;;;;0.20;0.20;;;11.20;99.90;;;;;;5027899;28;20029;-68
2023/05/09 05:14:53;;;;;;;0.20;0.20;;;11.30;99.90;;;;;;5033589;28;20030;-68
2023/05/09 05:17:18;;;;;;;0.20;0.20;;;11.40;99.90;;;;;;5031038;28;20021;-68
2023/05/09 05:19:44;;;;;;;0.20;0.20;;;11.40;99.90;;;;;;5014352;28;20035;-69
2023/05/09 05:22:09;;;;;;;0.20;0.20;;;11.40;99.90;;;;;;5018055;28;20053;-68
2023/05/09 05:24:35;;;;;;;0.10;0.10;;;11.50;99.90;;;;;;5017288;28;20033;-68
2023/05/09 05:27:00;;;;;;;0.10;0.10;;;11.60;99.90;;;;;;5014325;28;20054;-68
2023/05/09 05:29:26;;;;;;;0.20;0.20;;;11.70;99.90;;;;;;5013389;28;20037;-68
2023/05/09 05:31:51;;;;;;;0.20;0.20;;;11.70;99.90;;;;;;5013961;28;20049;-68
2023/05/09 05:34:17;;;;;;;0.20;0.20;;;11.70;99.90;;;;;;5014026;28;20026;-68
2023/05/09 05:36:42;;;;;;;0.20;0.20;;;11.80;99.90;;;;;;5013486;28;20168;-68
2023/05/09 05:39:08;;;;;;;0.17;0.17;;;11.90;99.90;;;;;;5027619;28;20099;-68
2023/05/09 05:41:33;;;;;;;0.20;0.20;;;11.90;99.90;;;;;;5033375;28;20022;-68
2023/05/09 05:43:59;;;;;;;0.20;0.20;;;12.00;99.90;;;;;;5033949;28;20037;-68
2023/05/09 05:46:24;;;;;;;0.20;0.20;;;12.00;99.90;;;;;;5033113;28;20469;-68
2023/05/09 05:48:50;;;;;;;0.20;0.20;;;12.00;99.90;;;;;;5015813;28;20033;-68
2023/05/09 05:51:15;;;;;;;0.10;0.10;;;11.90;99.90;;;;;;5033635;28;20030;-68
2023/05/09 05:53:41;;;;;;;0.20;0.20;;;11.90;99.90;;;;;;5032945;28;20493;-68
2023/05/09 05:56:06;;;;;;;0.10;0.10;;;11.90;99.90;;;;;;5033377;28;20029;-69
2023/05/09 05:58:32;;;;;;;0.20;0.20;;;11.80;99.90;;;;;;5033036;28;20104;-68
2023/05/09 06:00:57;;;;;;;0.20;0.20;;;11.80;99.90;;;;;;5033216;28;20108;-68
2023/05/09 06:03:23;;;;;;;0.20;0.20;;;11.80;99.90;;;;;;5032373;28;20021;-68
2023/05/09 06:05:49;;;;;;;0.13;0.13;;;11.80;99.90;;;;;;5033147;28;20091;-68
2023/05/09 06:08:14;;;;;;;0.20;0.20;;;12.00;99.90;;;;;;5032727;28;20038;-68
2023/05/09 06:10:40;;;;;;;0.20;0.20;;;12.10;99.90;;;;;;5033050;28;20143;-68
2023/05/09 06:13:06;;;;;;;0.20;0.20;;;12.30;99.90;;;;;;5032240;28;20021;-68
2023/05/09 06:15:31;;;;;;;0.10;0.10;;;12.40;99.90;;;;;;5030801;28;20033;-68
2023/05/09 06:17:57;;;;;;;0.20;0.20;;;12.50;99.90;;;;;;5032300;28;20141;-68
2023/05/09 06:20:23;;;;;;;0.20;0.20;;;12.60;99.90;;;;;;5032791;28;20028;-68
2023/05/09 06:22:48;;;;;;;0.20;0.20;;;12.80;99.90;;;;;;5026610;28;20021;-68
2023/05/09 06:25:15;;;;;;;0.10;0.10;;;13.00;99.90;;;;;;5013598;28;20026;-68
2023/05/09 06:27:41;;;;;;;0.20;0.20;;;13.20;99.90;;;;;;5012786;28;20030;-68
2023/05/09 06:30:07;;;;;;;0.20;0.20;;;13.30;99.90;;;;;;5030110;28;20531;-68
2023/05/09 06:32:33;;;;;;;0.15;0.15;;;13.40;99.90;;;;;;5032899;28;20056;-68
2023/05/09 06:34:58;;;;;;;0.20;0.20;;;13.40;99.90;;;;;;5032618;28;20471;-68
2023/05/09 06:37:24;;;;;;;0.20;0.20;;;13.40;99.90;;;;;;5031735;28;20084;-68
2023/05/09 06:39:49;;;;;;;0.20;0.20;;;13.50;99.90;;;;;;5033563;28;20022;-68
2023/05/09 06:42:15;;;;;;;0.20;0.20;;;13.80;99.90;;;;;;5032769;28;20132;-69
2023/05/09 06:44:42;;;;;;;0.10;0.10;;;13.90;99.90;;;;;;5032876;28;20026;-68
2023/05/09 06:47:08;;;;;;;0.20;0.20;;;14.10;99.90;;;;;;5032787;28;20018;-68
2023/05/09 06:49:33;;;;;;;0.20;0.20;;;14.10;99.90;;;;;;5031966;28;20017;-68
2023/05/09 06:51:59;;;;;;;0.20;0.20;;;14.20;99.90;;;;;;5032472;28;20086;-67
2023/05/09 06:54:25;;;;;;;0.20;0.20;;;14.20;99.90;;;;;;5032220;28;20113;-67
2023/05/09 06:56:50;;;;;;;0.20;0.20;;;14.40;99.90;;;;;;5032616;28;20090;-68
2023/05/09 06:59:16;;;;;;;0.20;0.20;;;14.60;99.90;;;;;;5032676;28;20529;-67
2023/05/09 07:01:42;;;;;;;0.13;0.13;;;14.90;99.90;;;;;;5032902;28;20096;-68
2023/05/09 07:04:07;;;;;;;0.20;0.20;;;15.00;99.90;;;;;;5032066;28;20493;-67
2023/05/09 07:06:33;;;;;;;0.10;0.10;;;15.10;99.90;;;;;;5032821;28;20390;-68
2023/05/09 07:08:58;;;;;;;0.10;0.10;;;15.00;99.90;;;;;;5032436;28;20033;-68
2023/05/09 07:11:24;;;;;;;0.17;0.17;;;15.10;99.90;;;;;;5032249;28;20021;-68
2023/05/09 07:13:49;;;;;;;0.10;0.10;;;15.20;99.90;;;;;;5036334;28;20029;-68
2023/05/09 07:16:17;;;;;;;0.20;0.20;;;15.40;99.90;;;;;;5035355;28;20371;-67
2023/05/09 07:18:42;;;;;;;0.20;0.20;;;15.50;99.90;;;;;;5035963;28;20037;-67
2023/05/09 07:21:08;;;;;;;0.10;0.10;;;15.60;99.90;;;;;;5036086;28;20022;-68
2023/05/09 07:23:34;;;;;;;0.20;0.20;;;15.80;99.90;;;;;;5036232;28;20021;-67
2023/05/09 07:26:00;;;;;;;0.10;0.10;;;15.80;99.90;;;;;;5035321;28;20037;-67
2023/05/09 07:28:25;;;;;;;0.10;0.10;;;15.60;99.90;;;;;;5036393;28;20433;-67
2023/05/09 07:30:51;;;;;;;0.10;0.10;;;15.60;99.90;;;;;;5036021;28;20021;-67
2023/05/09 07:33:17;;;;;;;0.10;0.10;;;15.80;99.90;;;;;;5035951;28;20037;-67
2023/05/09 07:35:42;;;;;;;0.20;0.20;;;15.90;99.90;;;;;;5035170;28;20116;-68
2023/05/09 07:38:08;;;;;;;0.20;0.20;;;15.90;99.90;;;;;;5035843;28;20109;-67
2023/05/09 07:40:36;;;;;;;0.10;0.10;;;16.10;99.90;;;;;;5035656;28;20017;-68
2023/05/09 07:43:01;;;;;;;0.20;0.20;;;16.30;99.90;;;;;;5035790;28;20029;-68
2023/05/09 07:45:27;;;;;;;0.10;0.10;;;16.60;99.90;;;;;;5035546;28;20048;-68
2023/05/09 07:47:52;;;;;;;0.10;0.10;;;16.60;99.90;;;;;;5034944;28;20470;-68
2023/05/09 07:50:17;;;;;;;0.10;0.10;;;16.60;99.90;;;;;;5035373;28;20029;-68
2023/05/09 07:52:44;;;;;;;0.13;0.13;;;16.50;99.90;;;;;;5035395;28;20029;-68
2023/05/09 07:55:11;;;;;;;0.20;0.20;;;16.50;99.90;;;;;;5034980;28;20041;-67
2023/05/09 07:57:37;;;;;;;0.10;0.10;;;16.90;99.90;;;;;;5035801;28;20076;-67
2023/05/09 08:00:05;;;;;;;0.13;0.13;;;17.20;99.90;;;;;;5035494;28;20052;-67
2023/05/09 08:02:30;;;;;;;0.17;0.17;;;17.30;99.90;;;;;;5035325;28;20037;-68
2023/05/09 08:04:56;;;;;;;0.17;0.17;;;17.30;99.90;;;;;;5035639;28;20029;-68
2023/05/09 08:07:21;;;;;;;0.10;0.10;;;17.40;99.90;;;;;;5034456;28;20025;-68
2023/05/09 08:09:47;;;;;;;0.10;0.10;;;17.60;99.90;;;;;;5085155;23;20465;-73
2023/05/09 08:12:12;;;;;;;0.10;0.10;;;17.70;99.90;;;;;;5035121;28;20034;-72
2023/05/09 08:14:38;;;;;;;0.10;0.10;;;17.70;99.90;;;;;;5035157;28;20029;-72
2023/05/09 08:17:03;;;;;;;0.15;0.15;;;17.80;99.90;;;;;;5035301;28;20395;-72
2023/05/09 08:19:29;;;;;;;0.20;0.20;;;17.90;99.90;;;;;;5046539;28;20422;-72
2023/05/09 08:21:54;;;;;;;0.17;0.17;;;17.90;99.90;;;;;;5055051;28;20025;-72
2023/05/09 08:24:20;;;;;;;0.10;0.10;;;18.00;99.90;;;;;;5054492;28;20377;-72
2023/05/09 08:26:46;;;;;;;0.10;0.10;;;18.10;99.90;;;;;;5054634;28;20032;-72
2023/05/09 08:29:11;;;;;;;0.10;0.10;;;18.20;99.90;;;;;;5054831;28;20522;-72
2023/05/09 08:31:37;;;;;;;0.10;0.10;;;18.40;99.90;;;;;;5054008;28;20127;-72
2023/05/09 08:34:02;;;;;;;0.20;0.20;;;18.50;99.90;;;;;;5054790;28;20032;-72
2023/05/09 08:36:28;;;;;;;0.10;0.10;;;18.60;99.90;;;;;;5054649;28;20021;-72
2023/05/09 08:38:53;;;;;;;0.10;0.10;;;18.70;99.90;;;;;;5054476;28;20021;-72
2023/05/09 08:41:26;;;;;;;0.10;0.10;;;18.60;99.90;;;;;;5054278;28;20028;-72
2023/05/09 08:43:53;;;;;;;0.10;0.10;;;18.80;99.90;;;;;;5054699;28;20075;-72
2023/05/09 08:46:24;;;;;;;0.10;0.10;;;19.00;99.90;;;;;;5054710;28;20036;-73
2023/05/09 08:48:50;;;;;;;0.10;0.10;;;19.10;99.90;;;;;;5054494;28;20025;-73
2023/05/09 08:51:16;;;;;;;0.10;0.10;;;19.30;99.90;;;;;;5054341;28;20017;-72
2023/05/09 08:53:42;;;;;;;0.10;0.10;;;19.50;99.90;;;;;;5054574;28;20036;-72
2023/05/09 08:56:08;;;;;;;0.10;0.10;;;19.60;99.90;;;;;;5035750;28;20057;-72
2023/05/09 08:58:34;;;;;;;0.08;0.08;;;19.80;99.90;;;;;;5054222;28;20021;-72
2023/05/09 09:01:06;;;;;;;0.10;0.10;;;20.00;99.90;;;;;;5054465;28;20433;-72
2023/05/09 09:03:32;;;;;;;0.10;0.10;;;20.10;99.90;;;;;;5036134;28;20178;-72
2023/05/09 09:05:58;;;;;;;0.10;0.10;;;20.10;99.90;;;;;;5054292;28;20490;-72
2023/05/09 09:08:25;;;;;;;0.10;0.10;;;20.10;99.90;;;;;;5053650;28;20110;-73
2023/05/09 09:10:51;;;;;;;0.10;0.10;;;20.20;99.90;;;;;;5053830;28;20028;-73
2023/05/09 09:13:19;;;;;;;0.10;0.10;;;20.30;99.90;;;;;;5053600;28;20098;-72
2023/05/09 09:15:45;;;;;;;0.10;0.10;;;20.70;99.90;;;;;;5053960;28;20060;-73
2023/05/09 09:18:16;;;;;;;0.10;0.10;;;20.70;99.90;;;;;;5053382;28;20100;-73
2023/05/09 09:20:50;;;;;;;0.10;0.10;;;20.80;99.90;;;;;;5053922;28;20025;-73
2023/05/09 09:23:22;;;;;;;0.10;0.10;;;20.90;99.90;;;;;;5053833;28;20017;-73
2023/05/09 09:26:05;;;;;;;0.10;0.10;;;21.00;99.90;;;;;;5053723;28;20040;-73
2023/05/09 09:28:31;;;;;;;0.10;0.10;;;21.00;99.90;;;;;;5053481;28;20104;-73
2023/05/09 09:30:57;;;;;;;0.10;0.10;;;21.00;99.90;;;;;;5053786;28;20109;-72
2023/05/09 09:33:25;;;;;;;0.10;0.10;;;20.90;99.90;;;;;;5035108;28;20509;-72
2023/05/09 09:35:52;;;;;;;0.10;0.10;;;21.10;99.90;;;;;;5052745;28;20478;-73
2023/05/09 09:38:18;;;;;;;0.00;0.00;;;21.30;99.90;;;;;;5053500;28;20386;-72
2023/05/09 09:40:51;;;;;;;0.10;0.10;;;21.60;99.90;;;;;;5053608;28;20021;-72
2023/05/09 09:43:17;;;;;;;0.10;0.10;;;21.60;99.90;;;;;;5053165;28;20017;-72
2023/05/09 09:45:42;;;;;;;0.10;0.10;;;21.50;99.90;;;;;;5053718;28;20029;-72
2023/05/09 09:48:08;;;;;;;0.10;0.10;;;21.60;99.90;;;;;;5053493;28;20134;-72
2023/05/09 09:50:33;;;;;;;0.10;0.10;;;21.60;99.90;;;;;;5054723;28;20025;-72
2023/05/09 09:52:59;;;;;;;0.00;0.00;;;21.80;99.90;;;;;;5053045;28;20390;-72
2023/05/09 09:55:25;;;;;;;0.10;0.10;;;22.00;99.90;;;;;;5053760;28;20115;-73
2023/05/09 09:57:51;;;;;;;0.10;0.10;;;22.00;99.90;;;;;;5053672;28;20471;-73
2023/05/09 10:00:23;;;;;;;0.10;0.10;;;22.20;99.90;;;;;;5034894;28;20028;-72
2023/05/09 10:02:53;;;;;;;0.10;0.10;;;21.80;99.90;;;;;;5035510;28;20021;-72
2023/05/09 10:05:19;;;;;;;0.10;0.10;;;21.70;99.90;;;;;;5053293;28;20079;-73
2023/05/09 10:07:48;;;;;;;0.10;0.10;;;21.90;99.90;;;;;;5053594;28;20032;-72
2023/05/09 10:10:14;;;;;;;0.10;0.10;;;22.00;99.90;;;;;;5052602;28;20029;-72
2023/05/09 10:12:42;;;;;;;0.10;0.10;;;22.10;99.90;;;;;;5053215;28;20021;-72
2023/05/09 10:15:11;;;;;;;0.10;0.10;;;22.30;99.90;;;;;;5053165;28;20029;-72
2023/05/09 10:17:36;;;;;;;0.05;0.05;;;22.30;99.90;;;;;;5053390;28;20131;-72
2023/05/09 10:20:04;;;;;;;0.10;0.10;;;22.30;99.90;;;;;;5053278;28;20029;-72
2023/05/09 10:22:33;;;;;;;0.10;0.10;;;22.40;99.90;;;;;;5052538;28;20590;-72
2023/05/09 10:25:05;;;;;;;0.00;0.00;;;22.70;99.90;;;;;;5053207;28;20545;-72
2023/05/09 10:27:34;;;;;;;0.03;0.03;;;22.80;99.90;;;;;;5053319;28;20025;-72
2023/05/09 10:30:07;;;;;;;0.00;0.00;;;22.90;99.90;;;;;;5052982;28;20100;-72
2023/05/09 10:32:53;;;;;;;0.00;0.00;;;23.00;99.90;;;;;;5053017;28;20021;-72
2023/05/09 10:35:23;;;;;;;0.10;0.10;;;23.20;99.90;;;;;;5052910;28;20029;-72
2023/05/09 10:37:49;;;;;;;0.10;0.10;;;23.20;99.90;;;;;;5053305;28;20029;-72
2023/05/09 10:40:15;;;;;;;0.00;0.00;;;23.20;99.90;;;;;;5052942;28;20022;-72
2023/05/09 10:42:44;;;;;;;0.03;0.03;;;23.10;99.90;;;;;;5053250;28;20033;-72
2023/05/09 10:45:11;;;;;;;0.08;0.08;;;23.30;99.90;;;;;;5052486;28;20062;-72
2023/05/09 10:47:39;;;;;;;0.00;0.00;;;23.20;99.90;;;;;;5038551;28;20104;-72
2023/05/09 10:50:11;;;;;;;0.05;0.05;;;23.20;99.90;;;;;;5056878;28;20387;-73
2023/05/09 10:53:09;;;;;;;0.08;0.08;;;23.10;99.90;;;;;;5056425;28;20029;-73
2023/05/09 10:55:37;;;;;;;0.00;0.00;;;23.10;99.90;;;;;;5056981;28;20024;-73
2023/05/09 10:58:25;;;;;;;0.00;0.00;;;23.10;99.90;;;;;;5056743;28;20025;-72
2023/05/09 11:00:52;;;;;;;0.00;0.00;;;23.50;99.90;;;;;;5056760;28;20048;-73
2023/05/09 11:03:18;;;;;;;0.00;0.00;;;23.60;99.90;;;;;;5056160;28;20025;-72
2023/05/09 11:05:46;;;;;;;0.00;0.00;;;23.60;99.90;;;;;;5056787;28;20032;-72
2023/05/09 11:08:25;;;;;;;0.10;0.10;;;23.70;99.90;;;;;;5056414;28;20039;-72
2023/05/09 11:10:53;;;;;;;0.00;0.00;;;23.80;99.90;;;;;;5056481;28;20044;-72
2023/05/09 11:13:24;;;;;;;0.00;0.00;;;23.80;99.90;;;;;;5056685;28;20033;-72
2023/05/09 11:15:59;;;;;;;0.05;0.05;;;24.10;99.90;;;;;;5055852;28;20029;-72
2023/05/09 11:18:25;;;;;;;0.00;0.00;;;24.10;99.90;;;;;;5056647;28;20462;-72
2023/05/09 11:20:50;;;;;;;0.00;0.00;;;24.10;99.90;;;;;;5056811;28;20090;-72
2023/05/09 11:23:19;;;;;;;0.00;0.00;;;24.20;99.90;;;;;;5056555;28;20052;-72
2023/05/09 11:25:46;;;;;;;0.05;0.05;;;24.20;99.90;;;;;;5056038;28;20029;-72
2023/05/09 11:28:35;;;;;;;0.05;0.05;;;23.80;99.90;;;;;;5056162;28;20021;-72
2023/05/09 11:31:12;;;;;;;0.00;0.00;;;23.90;99.90;;;;;;5056472;28;20024;-72
2023/05/09 11:33:38;;;;;;;0.00;0.00;;;23.90;99.90;;;;;;5056234;28;20021;-72
2023/05/09 11:36:28;;;;;;;0.00;0.00;;;23.80;99.90;;;;;;5056326;28;20029;-72
2023/05/09 11:39:03;;;;;;;0.00;0.00;;;23.50;99.90;;;;;;5056591;28;20485;-72
2023/05/09 11:41:30;;;;;;;0.00;0.00;;;23.30;99.90;;;;;;5055792;28;20486;-72
2023/05/09 11:43:58;;;;;;;0.00;0.00;;;23.70;99.90;;;;;;5056272;28;20414;-72
2023/05/09 11:46:24;;;;;;;0.00;0.00;;;23.90;99.90;;;;;;5038014;28;20532;-72
2023/05/09 11:48:49;;;;;;;0.10;0.10;;;24.00;99.90;;;;;;5055528;28;20021;-72
2023/05/09 11:51:18;;;;;;;0.00;0.00;;;24.00;99.90;;;;;;5055342;28;20036;-72
2023/05/09 11:53:45;;;;;;;0.00;0.00;;;24.00;99.90;;;;;;5055780;28;20414;-72
2023/05/09 11:56:12;;;;;;;0.00;0.00;;;24.30;99.90;;;;;;5055538;28;20386;-72
2023/05/09 11:58:38;;;;;;;0.00;0.00;;;24.80;99.90;;;;;;5054819;28;20056;-72
2023/05/09 12:01:05;;;;;;;0.10;0.10;;;24.40;99.90;;;;;;5055181;28;20053;-72
2023/05/09 12:03:30;;;;;;;0.00;0.00;;;24.10;99.90;;;;;;5054749;28;20049;-72
2023/05/09 12:05:56;;;;;;;0.03;0.03;;;23.60;99.90;;;;;;5055317;28;20533;-72
2023/05/09 12:08:23;;;;;;;0.10;0.10;;;23.80;99.90;;;;;;5055377;28;20025;-72
2023/05/09 12:10:50;;;;;;;0.00;0.00;;;23.80;99.90;;;;;;5055391;28;20107;-72
2023/05/09 12:13:16;;;;;;;0.00;0.00;;;23.80;99.90;;;;;;5055244;28;20422;-71
2023/05/09 12:15:42;;;;;;;0.00;0.00;;;23.70;99.90;;;;;;5055255;28;20060;-72
2023/05/09 12:18:07;;;;;;;0.00;0.00;;;23.60;99.90;;;;;;5055322;28;20053;-71
2023/05/09 12:20:49;;;;;;;0.10;0.10;;;23.40;99.90;;;;;;5055422;28;20021;-72
2023/05/09 12:23:14;;;;;;;0.00;0.00;;;23.20;99.90;;;;;;5054716;28;20013;-72
2023/05/09 12:25:47;;;;;;;0.00;0.00;;;23.20;99.90;;;;;;5055405;28;20075;-72
2023/05/09 12:28:13;;;;;;;0.00;0.00;;;23.20;99.90;;;;;;5055265;28;20391;-73
2023/05/09 12:30:39;;;;;;;0.10;0.10;;;23.20;99.90;;;;;;5055057;28;20055;-72
2023/05/09 12:33:06;;;;;;;0.10;0.10;;;23.20;99.90;;;;;;5054974;28;20021;-72
2023/05/09 12:35:31;;;;;;;0.05;0.05;;;23.20;99.90;;;;;;5055150;28;20024;-71
2023/05/09 12:37:57;;;;;;;0.10;0.10;;;23.00;99.90;;;;;;5054349;28;20028;-72
2023/05/09 12:40:23;;;;;;;0.00;0.00;;;23.20;99.90;;;;;;5039154;28;20026;-73
2023/05/09 12:42:52;;;;;;;0.00;0.00;;;23.20;99.90;;;;;;5046939;28;20116;-72
2023/05/09 12:45:18;;;;;;;0.00;0.00;;;23.60;99.90;;;;;;5054033;28;20068;-72
2023/05/09 12:47:44;;;;;;;0.00;0.00;;;23.70;99.90;;;;;;5054418;28;20021;-71